Time;durP1;ratioP1;P1;durP2;ratioP2;P2;SDS_P1;SDS_P2;PMS_P1;PMS_P2;Temp;Humidity;BMP_temperature;BMP_pressure;BME280_temperature;BME280_humidity;BME280_pressure;Samples;Min_cycle;Max_cycle;Signal;HPM_P1;HPM_P2
2022/01/28 00:01:50;;;;;;;14.17;2.03;;;;;;;4.08;100.00;99613.81;5150786;56;1136995;-77
2022/01/28 00:06:49;;;;;;;16.50;3.23;;;;;;;4.04;100.00;99621.02;5045647;58;1137431;-72
2022/01/28 00:11:54;;;;;;;7.03;1.50;;;;;;;4.03;100.00;99622.42;5150885;56;1137004;-81
2022/01/28 00:17:32;;;;;;;6.23;2.60;;;;;;;3.95;100.00;99628.64;5150835;56;1134922;-74
2022/01/28 00:38:27;;;;;;;6.87;2.00;;;;;;;3.41;100.00;99625.48;5129493;57;1134813;-74
2022/01/28 00:43:24;;;;;;;11.07;2.03;;;;;;;3.30;100.00;99637.08;5129124;57;1135110;-75
2022/01/28 00:48:30;;;;;;;6.13;1.30;;;;;;;3.24;100.00;99644.45;5214774;56;1136989;-81
2022/01/28 00:53:36;;;;;;;6.85;2.25;;;;;;;3.15;100.00;99644.09;5128738;57;1134802;-75
2022/01/28 00:58:42;;;;;;;6.40;1.57;;;;;;;3.08;100.00;99649.30;5132321;57;1134843;-75
2022/01/28 01:03:48;;;;;;;12.40;2.23;;;;;;;3.05;100.00;99656.51;5236338;56;1134896;-77
2022/01/28 01:08:54;;;;;;;5.30;2.07;;;;;;;3.03;100.00;99644.84;5150140;57;1136943;-84
2022/01/28 01:14:00;;;;;;;4.43;1.10;;;;;;;2.99;100.00;99666.84;5150160;57;1135164;-77
2022/01/28 01:24:22;;;;;;;4.03;1.17;;;;;;;2.97;100.00;99667.87;5069772;57;1132948;-77
2022/01/28 01:29:23;;;;;;;10.17;1.37;;;;;;;2.95;100.00;99657.51;5069898;57;1133037;-71
2022/01/28 01:34:29;;;;;;;1.90;1.03;;;;;;;2.88;100.00;99668.42;5150022;57;1134827;-83
2022/01/28 01:39:36;;;;;;;6.90;1.40;;;;;;;2.87;100.00;99668.89;5150077;57;1132744;-74
2022/01/28 01:55:10;;;;;;;1.50;0.77;;;;;;;2.83;100.00;99673.45;5150304;57;1134984;-78
2022/01/28 02:00:18;;;;;;;3.77;1.10;;;;;;;2.81;100.00;99679.22;5140917;57;1132709;-86
2022/01/28 02:05:25;;;;;;;2.93;1.10;;;;;;;2.83;100.00;99676.53;5117387;57;1132830;-76
2022/01/28 02:10:32;;;;;;;2.40;0.83;;;;;;;2.83;100.00;99668.70;5117815;57;1132949;-74
2022/01/28 02:15:39;;;;;;;1.67;0.80;;;;;;;2.85;100.00;99678.59;5117330;57;1133228;-75
2022/01/28 02:20:48;;;;;;;5.37;1.37;;;;;;;2.89;100.00;99697.06;5097620;57;1132722;-83
2022/01/28 02:25:56;;;;;;;1.70;0.80;;;;;;;2.91;100.00;99701.70;5039944;58;1133093;-82
2022/01/28 02:31:02;;;;;;;8.70;1.20;;;;;;;2.95;100.00;99712.82;5044509;57;1130595;-79
2022/01/28 02:36:08;;;;;;;21.90;1.93;;;;;;;2.98;100.00;99716.56;5044303;58;1134838;-82
2022/01/28 02:41:14;;;;;;;6.07;1.73;;;;;;;3.03;100.00;99723.67;5039884;58;1136879;-80
2022/01/28 02:46:20;;;;;;;5.23;1.23;;;;;;;3.07;100.00;99731.67;5044242;57;1134808;-77
2022/01/28 02:51:26;;;;;;;16.82;2.50;;;;;;;3.10;100.00;99736.73;5044075;58;1134824;-77
2022/01/28 03:01:37;;;;;;;12.30;1.43;;;;;;;3.16;100.00;99729.38;5053208;57;1135185;-72
2022/01/28 03:06:42;;;;;;;11.77;1.60;;;;;;;3.16;100.00;99737.22;5067733;57;1137037;-71
2022/01/28 03:12:11;;;;;;;5.07;1.83;;;;;;;3.16;100.00;99738.98;5063233;57;1137232;-72
2022/01/28 03:17:15;;;;;;;14.20;2.57;;;;;;;3.18;100.00;99737.97;5069407;57;1134863;-77
2022/01/28 03:22:16;;;;;;;11.30;1.70;;;;;;;3.24;100.00;99758.95;5055992;57;1136965;-81
2022/01/28 03:27:44;;;;;;;3.73;1.57;;;;;;;3.36;100.00;99764.75;5041571;58;1136982;-83
2022/01/28 03:32:28;;;;;;;13.17;2.33;;;;;;;3.39;100.00;99772.41;5128989;57;1134908;-74
2022/01/28 03:37:34;;;;;;;10.27;2.10;;;;;;;3.42;100.00;99753.94;5128729;57;1136985;-84
2022/01/28 03:42:40;;;;;;;12.33;3.00;;;;;;;3.45;100.00;99764.22;5128798;57;1137008;-82
2022/01/28 03:47:46;;;;;;;6.43;2.30;;;;;;;3.54;100.00;99768.03;5128721;57;1136882;-80
2022/01/28 03:52:52;;;;;;;12.07;2.90;;;;;;;3.58;100.00;99785.22;5128863;57;1134351;-82
2022/01/28 03:57:58;;;;;;;15.27;3.33;;;;;;;3.58;100.00;99770.00;5128702;57;1136843;-77
2022/01/28 04:13:33;;;;;;;12.70;2.33;;;;;;;3.59;100.00;99831.35;5117381;57;1137021;-81
2022/01/28 04:18:39;;;;;;;11.97;1.80;;;;;;;3.54;100.00;99835.53;5117304;57;1137077;-80
2022/01/28 04:23:45;;;;;;;19.10;2.90;;;;;;;3.47;100.00;99843.39;5054214;57;1137160;-74
2022/01/28 04:28:50;;;;;;;17.40;2.70;;;;;;;3.45;100.00;99856.16;5040019;58;1136982;-84
2022/01/28 04:33:59;;;;;;;27.10;2.80;;;;;;;3.43;100.00;99856.25;5044253;58;1137143;-76
2022/01/28 04:39:18;;;;;;;12.57;3.13;;;;;;;3.41;100.00;99855.97;5044299;58;1136992;-79
2022/01/28 04:44:23;;;;;;;;;;;;;;;3.45;100.00;99869.23;5037295;58;1136941;-84
2022/01/28 04:50:14;;;;;;;34.30;7.67;;;;;;;3.49;100.00;99883.36;5047646;57;972122;-78
2022/01/28 04:55:09;;;;;;;31.57;4.90;;;;;;;3.50;100.00;99895.50;5033838;57;1135010;-71
2022/01/28 05:15:53;;;;;;;19.17;3.70;;;;;;;3.49;100.00;99934.33;5146774;57;1132829;-79
2022/01/28 05:31:22;;;;;;;20.00;3.77;;;;;;;3.47;100.00;99983.70;4815115;60;1134834;-77
2022/01/28 05:36:27;;;;;;;10.83;2.20;;;;;;;3.49;100.00;99995.77;4811369;61;1134865;-71
2022/01/28 05:41:33;;;;;;;25.20;4.53;;;;;;;3.52;100.00;100011.72;4815063;60;1134983;-81
2022/01/28 05:46:39;;;;;;;26.43;6.17;;;;;;;3.52;100.00;100028.25;4815044;60;1134859;-77
2022/01/28 05:51:47;;;;;;;14.13;2.60;;;;;;;3.53;100.00;100036.94;4824850;60;1139003;-78
2022/01/28 05:56:53;;;;;;;21.17;4.00;;;;;;;3.50;100.00;100043.20;4895288;59;1139107;-77
2022/01/28 06:01:59;;;;;;;21.60;3.30;;;;;;;3.49;100.00;100044.59;4964084;59;1139144;-79
2022/01/28 06:07:05;;;;;;;14.37;2.97;;;;;;;3.47;100.00;100070.81;5136719;56;1139176;-76
2022/01/28 06:12:11;;;;;;;23.80;4.97;;;;;;;3.43;100.00;100088.05;5149191;57;1139120;-72
2022/01/28 06:17:17;;;;;;;15.93;3.10;;;;;;;3.42;100.00;100105.51;5077434;57;1139089;-78
2022/01/28 06:22:22;;;;;;;9.53;2.57;;;;;;;3.39;100.00;100108.28;5087172;57;1139231;-75
2022/01/28 06:27:28;;;;;;;22.50;3.73;;;;;;;3.38;100.00;100122.28;5080464;57;1137074;-80
2022/01/28 06:32:35;;;;;;;24.57;4.80;;;;;;;3.37;100.00;100134.97;5097281;57;1139235;-78
2022/01/28 06:37:44;;;;;;;18.40;2.65;;;;;;;3.34;100.00;100143.45;5128365;57;1139020;-86
2022/01/28 06:42:51;;;;;;;15.55;3.02;;;;;;;3.32;100.00;100162.30;5150658;57;1139266;-74
2022/01/28 06:47:57;;;;;;;31.10;5.73;;;;;;;3.32;100.00;100172.75;5103533;57;1139127;-76
2022/01/28 06:53:03;;;;;;;5.73;2.87;;;;;;;3.33;100.00;100179.67;5145928;57;1139023;-83
2022/01/28 06:58:10;;;;;;;14.77;2.90;;;;;;;3.33;100.00;100190.13;5112087;57;1136813;-73
2022/01/28 07:03:15;;;;;;;10.60;3.60;;;;;;;3.32;100.00;100212.80;5111913;57;1138943;-80
2022/01/28 07:08:23;;;;;;;10.67;3.50;;;;;;;3.31;100.00;100224.17;5213026;56;1139505;-77
2022/01/28 07:13:28;;;;;;;18.13;3.43;;;;;;;3.32;100.00;100235.02;5148163;57;1139002;-72
2022/01/28 07:18:34;;;;;;;12.07;2.47;;;;;;;3.31;100.00;100247.70;5119223;57;1138855;-74
2022/01/28 07:23:40;;;;;;;17.33;2.90;;;;;;;3.29;100.00;100244.32;5075495;57;1139074;-83
2022/01/28 07:28:46;;;;;;;14.43;3.83;;;;;;;3.31;100.00;100263.84;5149120;57;1138944;-80
2022/01/28 07:33:52;;;;;;;15.70;3.23;;;;;;;3.31;100.00;100275.61;5163917;56;1139097;-80
2022/01/28 07:38:58;;;;;;;14.63;1.97;;;;;;;3.32;100.00;100292.98;5193299;56;1138856;-71
2022/01/28 07:44:06;;;;;;;15.00;2.53;;;;;;;3.32;100.00;100312.13;5122363;57;1139178;-80
2022/01/28 07:49:11;;;;;;;6.30;2.93;;;;;;;3.32;100.00;100321.73;5110810;57;1138961;-84
2022/01/28 07:54:18;;;;;;;21.67;5.10;;;;;;;3.31;100.00;100340.48;5086274;57;1137136;-80
2022/01/28 07:59:24;;;;;;;16.53;3.67;;;;;;;3.30;100.00;100357.09;5203115;56;1138969;-76
2022/01/28 08:04:29;;;;;;;17.65;5.30;;;;;;;3.31;100.00;100373.16;5098445;57;1138984;-77
2022/01/28 08:09:36;;;;;;;26.70;3.57;;;;;;;3.32;100.00;100396.22;5065107;58;1139222;-76
2022/01/28 08:14:42;;;;;;;18.43;3.23;;;;;;;3.30;100.00;100401.52;5065187;58;1139025;-75
2022/01/28 08:19:48;;;;;;;10.97;2.67;;;;;;;3.29;100.00;100415.97;5229877;56;1138977;-73
2022/01/28 08:24:54;;;;;;;7.50;2.50;;;;;;;3.32;100.00;100438.05;5135782;57;1138918;-77
2022/01/28 08:30:04;;;;;;;17.37;3.97;;;;;;;3.31;100.00;100446.34;5135615;57;1136987;-74
2022/01/28 08:35:11;;;;;;;21.10;4.93;;;;;;;3.33;100.00;100466.72;5131263;57;1139169;-75
2022/01/28 08:40:20;;;;;;;9.18;2.87;;;;;;;3.35;100.00;100487.56;5135672;57;1138972;-79
2022/01/28 08:45:27;;;;;;;11.20;3.37;;;;;;;3.36;100.00;100499.22;5135779;57;1136925;-82
2022/01/28 08:50:37;;;;;;;14.83;6.40;;;;;;;3.38;100.00;100512.22;5220705;56;1138976;-82
2022/01/28 08:55:51;;;;;;;21.67;10.40;;;;;;;3.38;100.00;100518.30;5062382;58;1138945;-84
2022/01/28 09:00:53;;;;;;;10.67;4.40;;;;;;;3.42;100.00;100523.78;5068269;57;1139285;-73
2022/01/28 09:06:02;;;;;;;5.67;2.60;;;;;;;3.48;100.00;100525.27;5082439;57;1136917;-79
2022/01/28 09:16:28;;;;;;;19.67;4.17;;;;;;;3.58;100.00;100560.49;5111669;57;1136839;-80
2022/01/28 09:21:37;;;;;;;10.17;2.00;;;;;;;3.64;100.00;100580.28;5054137;57;1136966;-80
2022/01/28 09:26:45;;;;;;;6.70;2.73;;;;;;;3.68;100.00;100595.73;5056414;57;1137005;-73
2022/01/28 09:31:51;;;;;;;7.40;1.60;;;;;;;3.72;100.00;100602.52;5032861;57;1134805;-83
2022/01/28 09:36:57;;;;;;;5.43;2.53;;;;;;;3.76;100.00;100605.84;5024955;58;1134864;-74
2022/01/28 09:42:03;;;;;;;5.67;1.87;;;;;;;3.85;100.00;100627.63;5102626;57;1134793;-77
2022/01/28 09:47:13;;;;;;;4.43;2.67;;;;;;;3.94;100.00;100637.66;5074247;57;1134794;-72
2022/01/28 09:52:19;;;;;;;9.20;3.43;;;;;;;4.00;100.00;100646.97;5111939;57;1134801;-73
2022/01/28 09:57:25;;;;;;;6.80;2.73;;;;;;;4.01;100.00;100655.20;5065680;57;1134748;-79
2022/01/28 10:02:59;;;;;;;5.83;2.30;;;;;;;3.99;100.00;100660.97;5076273;57;1132694;-73
2022/01/28 10:08:15;;;;;;;3.20;1.53;;;;;;;3.97;100.00;100672.84;5119144;56;1136857;-78
2022/01/28 10:18:55;;;;;;;10.17;2.33;;;;;;;3.99;100.00;100694.53;5144640;57;1136940;-82
2022/01/28 10:24:08;;;;;;;7.10;2.23;;;;;;;4.00;100.00;100713.70;5116675;57;1138944;-76
2022/01/28 10:29:18;;;;;;;4.97;1.72;;;;;;;4.04;100.00;100714.80;5074080;57;1136902;-74
2022/01/28 10:34:35;;;;;;;4.67;2.20;;;;;;;4.05;100.00;100727.42;5166145;56;1137016;-81
2022/01/28 10:39:53;;;;;;;3.43;2.00;;;;;;;4.09;100.00;100740.30;5118629;57;1136869;-74
2022/01/28 10:45:13;;;;;;;1.40;0.70;;;;;;;4.12;100.00;100750.63;5222119;56;1136809;-85
2022/01/28 10:50:28;;;;;;;9.73;4.03;;;;;;;4.09;100.00;100765.63;5065372;58;1137384;-75
2022/01/28 10:55:40;;;;;;;10.70;4.07;;;;;;;4.11;100.00;100754.63;5065394;58;1136872;-79
2022/01/28 11:00:57;;;;;;;2.83;0.85;;;;;;;4.22;100.00;100761.05;5091388;57;1139188;-76
2022/01/28 11:06:04;;;;;;;2.57;0.93;;;;;;;4.30;100.00;100771.13;5230937;56;1137112;-72
2022/01/28 11:11:10;;;;;;;2.87;1.30;;;;;;;4.44;100.00;100789.65;5115815;57;1136958;-78
2022/01/28 11:16:16;;;;;;;7.00;3.20;;;;;;;4.50;100.00;100797.69;5121374;57;1134738;-77
2022/01/28 11:21:30;;;;;;;1.73;1.27;;;;;;;4.49;100.00;100806.00;5099874;57;1134751;-76
2022/01/28 11:26:56;;;;;;;4.77;2.10;;;;;;;4.46;100.00;100795.67;5165797;57;1134760;-77
2022/01/28 11:32:17;;;;;;;6.93;1.87;;;;;;;4.56;100.00;100807.88;5197548;57;1134802;-75
2022/01/28 11:37:34;;;;;;;5.93;2.30;;;;;;;4.62;100.00;100817.19;5200927;57;1135386;-76
2022/01/28 11:42:40;;;;;;;4.20;1.60;;;;;;;4.53;100.00;100836.83;5201388;57;1134708;-77
2022/01/28 11:47:59;;;;;;;2.03;1.17;;;;;;;4.30;100.00;100847.06;5201239;56;1134979;-74
2022/01/28 11:53:24;;;;;;;3.93;1.57;;;;;;;4.19;100.00;100850.64;5186203;57;1136708;-73
2022/01/28 11:59:11;;;;;;;5.90;2.13;;;;;;;4.23;100.00;100859.61;5111575;57;1136863;-74
2022/01/28 12:04:34;;;;;;;3.13;1.70;;;;;;;4.30;100.00;100865.84;5143616;57;1136948;-75
2022/01/28 12:09:46;;;;;;;0.87;0.77;;;;;;;4.31;100.00;100878.02;5173163;56;1136991;-74
2022/01/28 12:14:59;;;;;;;3.85;1.30;;;;;;;4.30;100.00;100883.72;5091831;57;1136906;-75
2022/01/28 12:20:23;;;;;;;6.23;2.80;;;;;;;4.33;100.00;100887.97;5135053;57;1136805;-75
2022/01/28 12:25:46;;;;;;;2.43;1.10;;;;;;;4.37;100.00;100899.55;5074787;57;1137040;-77
2022/01/28 12:31:07;;;;;;;5.07;3.67;;;;;;;4.39;100.00;100914.73;5066155;58;1137117;-78
2022/01/28 12:36:17;;;;;;;69.30;46.47;;;;;;;4.37;100.00;100915.72;5029126;58;1136919;-78
2022/01/28 12:41:24;;;;;;;5.67;2.90;;;;;;;4.35;100.00;100922.80;5056940;58;1141108;-79
2022/01/28 12:46:31;;;;;;;13.87;12.30;;;;;;;4.36;100.00;100927.96;5145322;57;1134795;-74
2022/01/28 12:51:41;;;;;;;10.40;5.47;;;;;;;4.33;100.00;100933.33;5179678;56;1139032;-76
2022/01/28 12:56:50;;;;;;;3.20;1.80;;;;;;;4.34;100.00;100944.20;5160621;56;1136984;-76
2022/01/28 13:01:57;;;;;;;9.23;2.70;;;;;;;4.33;100.00;100946.42;5122408;57;1134792;-76
2022/01/28 13:12:31;;;;;;;5.58;2.52;;;;;;;4.26;100.00;100973.81;5197588;56;1134748;-74
2022/01/28 13:17:38;;;;;;;6.07;2.80;;;;;;;4.19;100.00;100995.47;5092288;58;1134742;-70
2022/01/28 13:22:51;;;;;;;14.23;11.37;;;;;;;4.10;100.00;101008.98;5061454;57;1135079;-74
2022/01/28 13:28:05;;;;;;;22.50;14.03;;;;;;;4.09;100.00;101011.66;5111857;57;1139479;-76
2022/01/28 13:33:12;;;;;;;59.90;43.40;;;;;;;4.06;100.00;101019.63;5114319;57;1136840;-72
2022/01/28 13:38:20;;;;;;;81.37;65.83;;;;;;;4.01;100.00;101018.52;5030911;58;1136925;-78
2022/01/28 13:43:25;;;;;;;34.80;20.47;;;;;;;3.93;100.00;101029.77;5083202;57;1141006;-76
2022/01/28 13:48:41;;;;;;;25.93;18.90;;;;;;;3.87;100.00;101032.17;5058502;57;1141003;-78
2022/01/28 13:59:26;;;;;;;65.20;31.57;;;;;;;3.72;100.00;101046.34;5148805;57;1138962;-81
2022/01/28 14:04:38;;;;;;;4.60;2.22;;;;;;;3.56;100.00;101058.34;5102833;57;1141268;-73
2022/01/28 14:09:59;;;;;;;9.18;5.85;;;;;;;3.42;100.00;101054.52;4978122;58;1137103;-80
2022/01/28 14:15:13;;;;;;;6.57;4.20;;;;;;;3.38;100.00;101078.22;5194972;56;1136875;-79
2022/01/28 14:20:17;;;;;;;3.07;2.80;;;;;;;3.38;100.00;101109.14;5083762;57;1136839;-74
2022/01/28 14:25:23;;;;;;;4.40;3.20;;;;;;;3.41;100.00;101132.56;5103361;57;1136826;-74
2022/01/28 14:30:39;;;;;;;14.23;8.90;;;;;;;3.51;100.00;101135.20;5144691;57;1136942;-74
2022/01/28 14:35:44;;;;;;;3.47;2.10;;;;;;;3.38;93.99;101146.19;5226115;56;1138934;-76
2022/01/28 14:40:50;;;;;;;3.47;2.17;;;;;;;3.32;94.74;101173.89;5144822;57;1134835;-77
2022/01/28 14:45:56;;;;;;;4.37;2.20;;;;;;;3.34;93.08;101167.70;5149307;57;1134936;-75
2022/01/28 14:51:02;;;;;;;4.27;1.77;;;;;;;3.39;94.22;101177.52;5144920;57;1134995;-76
2022/01/28 14:56:08;;;;;;;3.13;1.60;;;;;;;3.41;90.46;101201.84;5227429;56;1134848;-77
2022/01/28 15:01:15;;;;;;;7.57;3.77;;;;;;;3.34;86.01;101231.76;5131963;57;1134978;-74
2022/01/28 15:06:26;;;;;;;6.17;3.80;;;;;;;3.31;87.60;101244.08;5097178;57;1134730;-79
2022/01/28 15:11:43;;;;;;;4.40;3.57;;;;;;;3.32;89.11;101252.33;5108037;57;1135036;-80
2022/01/28 15:16:41;;;;;;;10.68;3.10;;;;;;;3.33;90.21;101269.72;5083242;57;1134814;-74
2022/01/28 15:21:51;;;;;;;3.67;1.73;;;;;;;3.26;88.09;101270.38;5097304;57;1136996;-72
2022/01/28 15:26:57;;;;;;;9.37;2.13;;;;;;;3.20;90.17;101290.67;5080679;57;1134815;-77
2022/01/28 15:37:28;;;;;;;10.55;2.47;;;;;;;3.11;89.15;101301.83;5111873;57;1132701;-77
2022/01/28 15:42:34;;;;;;;7.73;4.07;;;;;;;3.09;89.20;101298.41;5174119;56;1134908;-72
2022/01/28 15:47:40;;;;;;;4.30;1.80;;;;;;;3.06;89.80;101306.80;5065996;57;1133126;-78
2022/01/28 15:52:46;;;;;;;2.33;1.33;;;;;;;2.99;89.16;101318.37;5136829;56;1132909;-84
2022/01/28 15:57:52;;;;;;;5.80;2.20;;;;;;;2.94;88.53;101338.57;5135565;56;1132763;-79
2022/01/28 16:02:57;;;;;;;10.73;3.37;;;;;;;2.81;88.27;101334.20;5087953;57;1133302;-73
2022/01/28 16:08:07;;;;;;;13.40;4.33;;;;;;;2.82;87.15;101352.89;5106124;57;1134886;-71
2022/01/28 16:18:18;;;;;;;7.37;2.97;;;;;;;2.81;90.30;101377.30;5141388;57;1134925;-75
2022/01/28 16:23:25;;;;;;;32.67;21.90;;;;;;;2.79;90.15;101372.13;5141455;57;1132983;-75
2022/01/28 16:28:31;;;;;;;23.07;14.00;;;;;;;2.73;89.82;101389.31;5076833;57;1137270;-76
2022/01/28 16:33:37;;;;;;;14.13;7.93;;;;;;;2.68;90.58;101404.72;5146342;57;1136911;-78
2022/01/28 16:38:43;;;;;;;32.03;17.23;;;;;;;2.58;89.62;101411.13;5184732;56;1134807;-72
2022/01/28 16:44:00;;;;;;;20.27;8.83;;;;;;;2.51;91.53;101426.12;5145748;57;1135000;-72
2022/01/28 16:48:56;;;;;;;13.40;5.27;;;;;;;2.53;92.58;101426.08;5126554;57;1132915;-80
2022/01/28 16:54:04;;;;;;;18.93;5.80;;;;;;;2.52;91.36;101432.19;5103688;57;1136861;-81
2022/01/28 16:59:10;;;;;;;15.10;5.00;;;;;;;2.44;90.29;101430.65;5150507;57;1136926;-76
2022/01/28 17:04:16;;;;;;;14.85;6.15;;;;;;;2.40;91.71;101440.80;5071465;58;1136896;-70
2022/01/28 17:09:25;;;;;;;16.00;5.10;;;;;;;2.38;91.99;101445.20;5071337;58;1136852;-82
2022/01/28 17:14:29;;;;;;;10.47;3.60;;;;;;;2.32;92.46;101463.64;5108582;57;1136947;-77
2022/01/28 17:19:35;;;;;;;10.47;4.73;;;;;;;2.30;91.76;101465.89;5150135;57;1136899;-75
2022/01/28 17:24:41;;;;;;;13.20;3.20;;;;;;;2.28;91.33;101480.31;5103405;57;1136992;-80
2022/01/28 17:29:49;;;;;;;8.33;4.20;;;;;;;2.17;91.21;101467.13;5072989;57;1136983;-69
2022/01/28 17:34:54;;;;;;;10.97;4.50;;;;;;;2.25;92.07;101495.20;5117532;57;1134887;-80
2022/01/28 17:40:05;;;;;;;12.60;3.93;;;;;;;2.22;90.40;101496.58;5120350;57;1136923;-74
2022/01/28 17:45:08;;;;;;;16.47;6.27;;;;;;;2.20;92.29;101500.98;5145629;57;1136966;-79
2022/01/28 17:50:14;;;;;;;22.47;8.03;;;;;;;2.16;90.69;101501.95;5205727;57;1137322;-75
2022/01/28 17:55:21;;;;;;;14.23;7.10;;;;;;;2.11;92.10;101504.71;5141621;57;1136912;-79
2022/01/28 18:00:29;;;;;;;14.53;7.87;;;;;;;2.06;92.25;101517.02;5149891;57;1136897;-79
2022/01/28 18:05:35;;;;;;;11.30;5.40;;;;;;;2.00;91.70;101535.42;5100757;57;1136894;-74
2022/01/28 18:10:41;;;;;;;18.97;6.77;;;;;;;1.96;93.14;101528.15;5082260;57;1136922;-74
2022/01/28 18:15:47;;;;;;;26.97;13.87;;;;;;;1.93;92.86;101542.57;5217090;56;1137108;-77
2022/01/28 18:20:52;;;;;;;20.07;7.63;;;;;;;1.90;92.77;101545.25;5078356;57;1139443;-73
2022/01/28 18:26:00;;;;;;;29.43;10.93;;;;;;;1.85;92.62;101554.08;4960107;59;1136939;-81
2022/01/28 18:31:05;;;;;;;56.45;28.45;;;;;;;1.83;93.33;101558.05;4994486;58;1138982;-82
2022/01/28 18:36:11;;;;;;;49.83;19.80;;;;;;;1.79;93.03;101568.15;5003798;57;1139017;-78
2022/01/28 18:41:21;;;;;;;35.60;10.77;;;;;;;1.73;92.86;101564.38;5090135;57;1138952;-81
2022/01/28 18:46:31;;;;;;;86.63;35.37;;;;;;;1.67;92.17;101575.83;5044665;58;1139146;-71
2022/01/28 18:51:34;;;;;;;46.27;16.93;;;;;;;1.64;93.05;101579.80;5117218;57;1139034;-71
2022/01/28 18:56:39;;;;;;;13.87;5.33;;;;;;;1.60;93.21;101578.16;5115438;57;1139055;-72
2022/01/28 19:01:45;;;;;;;10.43;3.60;;;;;;;1.54;92.58;101580.89;5111559;57;1136948;-79
2022/01/28 19:06:50;;;;;;;20.87;5.87;;;;;;;1.28;93.59;101598.89;5103402;57;1136901;-80
2022/01/28 19:11:57;;;;;;;21.80;6.63;;;;;;;1.28;93.59;101598.89;5105889;57;1136966;-75
2022/01/28 19:17:03;;;;;;;29.87;9.63;;;;;;;1.23;93.81;101600.72;5093481;57;1136975;-72
2022/01/28 19:22:09;;;;;;;16.65;5.37;;;;;;;1.17;94.64;101612.16;5049062;57;1136979;-78
2022/01/28 19:27:16;;;;;;;18.73;4.17;;;;;;;1.13;95.11;101605.73;5090799;57;1137551;-71
2022/01/28 19:32:23;;;;;;;12.33;5.90;;;;;;;1.08;95.56;101620.59;5200439;57;1137113;-73
2022/01/28 19:37:29;;;;;;;24.13;8.43;;;;;;;1.01;95.99;101635.51;5116284;57;1136918;-76
2022/01/28 19:42:40;;;;;;;17.47;5.50;;;;;;;0.95;96.48;101637.78;5070692;57;1137207;-76
2022/01/28 19:47:48;;;;;;;21.73;8.03;;;;;;;0.92;96.78;101652.16;5105276;57;1136906;-77
2022/01/28 19:52:54;;;;;;;26.60;11.00;;;;;;;0.88;97.25;101653.58;5114944;57;1137137;-77
2022/01/28 19:58:00;;;;;;;18.93;5.30;;;;;;;0.83;97.55;101656.26;5082288;57;1136925;-76
2022/01/28 20:03:06;;;;;;;12.07;3.67;;;;;;;0.78;98.33;101661.13;5089104;57;1134799;-71
2022/01/28 20:08:11;;;;;;;15.97;5.20;;;;;;;0.76;98.58;101659.02;5080101;57;1134864;-75
2022/01/28 20:13:17;;;;;;;12.43;5.37;;;;;;;0.75;98.86;101666.42;5095063;57;21760;-70
2022/01/28 20:18:23;;;;;;;29.07;7.60;;;;;;;0.75;98.98;101671.63;5138603;57;1131665;-73
2022/01/28 20:23:30;;;;;;;17.70;5.47;;;;;;;0.73;99.08;101689.88;5120866;57;1135032;-77
2022/01/28 20:28:38;;;;;;;19.03;4.20;;;;;;;0.74;99.27;101699.85;5146863;57;1134980;-71
2022/01/28 20:33:45;;;;;;;7.60;2.97;;;;;;;0.73;99.21;101710.70;5236171;56;1134876;-72
2022/01/28 20:38:52;;;;;;;8.43;3.30;;;;;;;0.68;99.18;101711.22;5142624;57;1133011;-72
2022/01/28 20:43:58;;;;;;;14.37;3.77;;;;;;;0.61;99.42;101715.66;5101597;57;1132834;-71
2022/01/28 20:49:03;;;;;;;9.17;3.23;;;;;;;0.60;99.68;101707.91;5106902;57;1134851;-72
2022/01/28 20:54:09;;;;;;;10.07;3.47;;;;;;;0.58;99.59;101716.19;5071107;58;1132813;-72
2022/01/28 20:59:15;;;;;;;17.10;4.90;;;;;;;0.58;99.71;101707.08;5107536;57;1134803;-72
2022/01/28 21:04:21;;;;;;;17.37;4.53;;;;;;;0.50;99.55;101706.33;5136783;57;1134966;-72
2022/01/28 21:09:26;;;;;;;11.57;3.93;;;;;;;0.43;99.59;101714.70;5150240;57;1134869;-72
2022/01/28 21:14:32;;;;;;;4.77;2.97;;;;;;;0.34;99.58;101720.05;5174577;56;1134839;-72
2022/01/28 21:19:38;;;;;;;10.08;4.05;;;;;;;0.25;99.84;101715.86;5070788;58;1132703;-72
2022/01/28 21:24:43;;;;;;;11.07;3.53;;;;;;;0.19;99.88;101728.95;5178420;56;1134874;-72
2022/01/28 21:29:49;;;;;;;10.57;4.07;;;;;;;0.14;100.00;101720.82;5106765;57;1132926;-72
2022/01/28 21:34:55;;;;;;;8.10;2.83;;;;;;;0.09;100.00;101731.73;5089610;57;1134879;-72
2022/01/28 21:40:01;;;;;;;6.83;3.33;;;;;;;0.09;100.00;101731.73;5112400;57;1136829;-72
2022/01/28 21:45:07;;;;;;;8.30;3.13;;;;;;;0.06;100.00;101733.06;5102551;57;1136938;-72
2022/01/28 21:50:13;;;;;;;12.07;3.00;;;;;;;0.00;100.00;101727.06;5070680;58;1137097;-72
2022/01/28 21:55:19;;;;;;;4.83;2.00;;;;;;;0.00;100.00;101730.14;5070867;58;1139083;-71
2022/01/28 22:00:25;;;;;;;9.13;1.97;;;;;;;-0.02;100.00;101721.49;5070610;58;1137105;-72
2022/01/28 22:05:33;;;;;;;12.03;2.57;;;;;;;-0.03;100.00;101728.44;5069762;58;1139224;-72
2022/01/28 22:10:40;;;;;;;6.50;2.33;;;;;;;-0.01;100.00;101725.37;5070576;58;1141228;-72
2022/01/28 22:15:52;;;;;;;8.40;3.53;;;;;;;0.01;100.00;101717.52;5144758;57;1139208;-71
2022/01/28 22:20:58;;;;;;;4.70;2.10;;;;;;;0.02;100.00;101725.74;5064173;57;1137061;-71
2022/01/28 22:26:04;;;;;;;13.00;3.93;;;;;;;0.06;100.00;101718.32;5073866;57;1136939;-72
2022/01/28 22:31:12;;;;;;;9.67;4.80;;;;;;;0.06;100.00;101718.32;5041613;58;1139302;-70
2022/01/28 22:36:17;;;;;;;12.83;5.10;;;;;;;-0.02;99.98;101708.49;5093941;57;1136889;-72
2022/01/28 22:41:23;;;;;;;14.37;3.53;;;;;;;-0.08;100.00;101715.93;5143925;56;1139354;-71
2022/01/28 22:46:29;;;;;;;10.40;2.40;;;;;;;-0.15;100.00;101705.19;5105461;57;1141122;-72
2022/01/28 22:51:34;;;;;;;10.90;3.07;;;;;;;-0.19;100.00;101696.17;5104345;57;1141187;-71
2022/01/28 22:56:40;;;;;;;10.13;3.07;;;;;;;-0.24;100.00;101688.88;5117019;57;1140999;-72
2022/01/28 23:01:52;;;;;;;12.23;4.30;;;;;;;-0.28;100.00;101698.89;5085512;57;1141083;-71
2022/01/28 23:06:57;;;;;;;11.13;4.27;;;;;;;-0.31;100.00;101700.26;5115345;57;1141291;-71
2022/01/28 23:12:01;;;;;;;11.67;3.30;;;;;;;-0.30;100.00;101684.61;5070157;57;1141173;-71
2022/01/28 23:17:08;;;;;;;8.70;3.67;;;;;;;-0.30;100.00;101691.11;5092452;57;1141078;-70
2022/01/28 23:22:14;;;;;;;13.07;3.43;;;;;;;-0.31;100.00;101680.77;5179692;56;1139004;-71
2022/01/28 23:27:20;;;;;;;8.77;2.83;;;;;;;-0.29;100.00;101681.13;5141551;57;1141485;-71
2022/01/28 23:32:26;;;;;;;12.93;4.90;;;;;;;-0.28;100.00;101676.35;5093013;57;1139121;-72
2022/01/28 23:37:32;;;;;;;13.87;3.73;;;;;;;-0.25;100.00;101671.55;5088845;57;1141130;-71
2022/01/28 23:42:38;;;;;;;16.77;4.53;;;;;;;-0.22;100.00;101659.38;5102501;57;1141019;-71
2022/01/28 23:47:44;;;;;;;6.73;1.93;;;;;;;-0.16;100.00;101655.84;5105362;57;1141134;-71
2022/01/28 23:52:50;;;;;;;19.30;3.30;;;;;;;-0.12;100.00;101653.59;5149450;57;1139261;-70
2022/01/28 23:57:55;;;;;;;14.43;4.47;;;;;;;-0.09;100.00;101661.34;5235763;56;1141272;-71
